Banner Elk, NC

2:50 AM EST on December 26, 2014 (GMT -0500)
Seven Devils, NC | Change Station
CLOSE
Current Station
Personal Weather Station
Location: Seven Devils, NC
Elevation: 4262 ft
Nearby Weather Stations

Elev 4262 ft 36.14 °N, 81.83 °W | Updated 3 minutes ago

Partly Cloudy
Partly Cloudy
33.8 °F
Feels Like 27 °F
N
8.0
Wind Variable Wind from SSW
Gusts 9.0 mph

Today
High -- | Low -- °F
--% Chance of Precip.
Yesterday
High -- | Low -- °F
Precip. -- in
7:36 AM 5:19 PM
Waxing Crescent, 23% visible
Pressure 30.23 in
Visibility 10.0 miles
Clouds Clear
Windchill 27 °F
Dew Point 22 °F
Humidity 62%
Rainfall 0.00 in
Snow Depth Not available.
UV 0 out of 12
Pollen .90 out of 12
Air Quality Not available.
Flu Activity Not available.
METAR KTNB 260735Z AUTO 00000KT 10SM CLR M03/M03 A3023 RMK AO2 T10351035

More Conditions Fewer Conditions

Pressure 30.23 in
Visibility 10.0 miles
Clouds Clear
Windchill 27 °F
Dew Point 22 °F
Humidity 62%
Rainfall 0.00 in
Snow Depth Not available.
UV 0 out of 12
Pollen .90 out of 12
Air Quality Not available.
Flu Activity Not available.
METAR KTNB 260735Z AUTO 00000KT 10SM CLR M03/M03 A3023 RMK AO2 T10351035

More Conditions Fewer Conditions

10-Day Weather Forecast

Almanac

Astronomy

Dec. 26, 2014 Rise Set
Actual Time
Civil Twilight
Nautical Twilight
Astronomical Twilight
Moon
Length of Visible Light
Length of Day
Tomorrow will be .
, % of the Moon is Illuminated

Today's Extremes

State Highs State Lows

Community

WunderPhotos

Upload Photos

1,780,571 photos uploaded!

WunderBlogs® & News

Nearby

Air Quality

  Air Quality AQ Index Pollutant
Not available.

Snow Depth

Station Depth Elevation

Earthquake Activity

City Distance Mag. Time & Date
Minimum magnitude displayed is 2.5.

Coastal Water Temperatures

Place Temperature

Nearby Weather Stations